createdAt,value
2023-11-15T00:00:19.977Z,67.43
2023-11-15T00:02:48.310Z,67.24
2023-11-15T00:05:16.676Z,66.74
2023-11-15T00:07:45.392Z,67.31
2023-11-15T00:10:14.991Z,67.06
2023-11-15T00:12:44.662Z,67.26
2023-11-15T00:15:15.423Z,67.26
2023-11-15T00:17:46.866Z,66.76
2023-11-15T00:20:15.342Z,66.27
2023-11-15T00:22:43.681Z,66.51
2023-11-15T00:25:11.882Z,67.27
2023-11-15T00:27:40.109Z,67.64
2023-11-15T00:30:12.095Z,66.64
2023-11-15T00:32:40.800Z,67.44
2023-11-15T00:35:13.586Z,67.02
2023-11-15T00:37:43.446Z,67.81
2023-11-15T00:40:15.002Z,66.92
2023-11-15T00:42:43.652Z,67.35
2023-11-15T00:45:13.438Z,68.10
2023-11-15T00:47:42.246Z,68.32
2023-11-15T00:50:12.537Z,68.26
2023-11-15T00:52:40.709Z,67.87
2023-11-15T00:55:10.177Z,67.96
2023-11-15T00:57:38.423Z,67.92
2023-11-15T01:00:23.097Z,68.61
2023-11-15T01:02:52.387Z,68.33
2023-11-15T01:05:22.284Z,68.25
2023-11-15T01:07:50.443Z,68.81
2023-11-15T01:10:20.068Z,69.11
2023-11-15T01:12:48.460Z,68.25
2023-11-15T01:15:20.435Z,68.79
2023-11-15T01:17:48.688Z,68.23
2023-11-15T01:20:17.330Z,67.70
2023-11-15T01:22:46.934Z,66.90
2023-11-15T01:25:15.525Z,67.28
2023-11-15T01:27:43.805Z,67.12
2023-11-15T01:30:12.693Z,68.00
2023-11-15T01:32:41.482Z,67.82
2023-11-15T01:35:10.527Z,67.89
2023-11-15T01:37:38.818Z,67.42
2023-11-15T01:40:11.415Z,66.69
2023-11-15T01:42:40.566Z,66.66
2023-11-15T01:45:09.574Z,66.88
2023-11-15T01:47:38.439Z,65.90
2023-11-15T01:50:11.277Z,66.57
2023-11-15T01:52:40.375Z,67.07
2023-11-15T01:55:14.735Z,67.51
2023-11-15T01:57:43.088Z,67.69
2023-11-15T02:00:12.709Z,67.70
2023-11-15T02:02:41.742Z,67.02
2023-11-15T02:05:10.970Z,67.98
2023-11-15T02:07:40.563Z,67.16
2023-11-15T02:10:13.888Z,66.83
2023-11-15T02:12:42.097Z,67.52
2023-11-15T02:15:11.046Z,67.31
2023-11-15T02:17:39.338Z,67.27
2023-11-15T02:20:09.691Z,67.55
2023-11-15T02:22:46.135Z,67.62
2023-11-15T02:25:16.560Z,66.63
2023-11-15T02:27:44.870Z,66.73
2023-11-15T02:30:13.782Z,67.28
2023-11-15T02:32:43.710Z,67.48
2023-11-15T02:35:12.432Z,66.85
2023-11-15T02:37:40.578Z,66.29
2023-11-15T02:40:12.165Z,65.82
2023-11-15T02:42:41.945Z,65.58
2023-11-15T02:45:11.469Z,66.13
2023-11-15T02:47:39.871Z,66.47
2023-11-15T02:50:09.344Z,66.80
2023-11-15T02:52:38.205Z,65.91
2023-11-15T02:55:07.031Z,66.86
2023-11-15T02:57:35.175Z,65.59
2023-11-15T03:00:06.966Z,65.06
2023-11-15T03:02:35.174Z,65.65
2023-11-15T03:05:03.963Z,65.07
2023-11-15T03:07:32.138Z,66.05
2023-11-15T03:10:01.111Z,65.20
2023-11-15T03:12:29.368Z,65.03
2023-11-15T03:14:57.747Z,65.67
2023-11-15T03:17:27.530Z,65.11
2023-11-15T03:19:56.097Z,65.27
2023-11-15T03:22:24.345Z,65.29
2023-11-15T03:24:52.541Z,64.88
2023-11-15T03:27:20.858Z,64.42
2023-11-15T03:29:49.123Z,64.60
2023-11-15T03:32:18.485Z,64.48
2023-11-15T03:34:48.924Z,63.71
2023-11-15T03:37:17.232Z,63.80
2023-11-15T03:39:46.609Z,63.61
2023-11-15T03:42:14.825Z,64.54
2023-11-15T03:44:42.968Z,64.66
2023-11-15T03:47:11.100Z,64.54
2023-11-15T03:49:39.258Z,65.50
2023-11-15T03:52:09.273Z,64.87
2023-11-15T03:54:37.526Z,65.79
2023-11-15T03:57:09.298Z,65.45
2023-11-15T03:59:37.556Z,65.29
2023-11-15T04:02:05.872Z,65.92
2023-11-15T04:04:34.851Z,65.29
2023-11-15T04:07:04.298Z,64.60
2023-11-15T04:09:35.513Z,64.29
2023-11-15T04:12:03.918Z,63.62
2023-11-15T04:14:32.085Z,64.06
2023-11-15T04:17:00.280Z,63.21
2023-11-15T04:19:28.611Z,63.62
2023-11-15T04:22:08.598Z,63.01
2023-11-15T04:24:44.342Z,62.90
2023-11-15T04:27:14.300Z,63.47
2023-11-15T04:29:42.792Z,63.49
2023-11-15T04:32:11.140Z,62.71
2023-11-15T04:34:39.535Z,62.76
2023-11-15T04:37:07.734Z,63.49
2023-11-15T04:39:35.809Z,63.33
2023-11-15T04:42:05.725Z,62.61
2023-11-15T04:44:33.983Z,62.91
2023-11-15T04:47:02.298Z,63.86
2023-11-15T04:49:30.454Z,63.84
2023-11-15T04:51:58.562Z,63.63
2023-11-15T04:54:26.782Z,63.81
2023-11-15T04:56:54.911Z,63.03
2023-11-15T04:59:24.650Z,62.81
2023-11-15T05:01:52.870Z,63.04
2023-11-15T05:06:49.834Z,63.04
2023-11-15T05:09:22.475Z,62.21
2023-11-15T05:11:50.960Z,62.58
2023-11-15T05:14:19.163Z,61.90
2023-11-15T05:16:48.732Z,61.70
2023-11-15T05:19:16.858Z,62.83
2023-11-15T05:21:44.962Z,62.43
2023-11-15T05:24:13.304Z,62.35
2023-11-15T05:26:41.494Z,61.21
2023-11-15T05:29:09.740Z,61.15
2023-11-15T05:31:37.904Z,61.79
2023-11-15T05:34:07.615Z,61.96
2023-11-15T05:36:35.850Z,61.30
2023-11-15T05:39:04.535Z,62.19
2023-11-15T05:41:32.915Z,61.90
2023-11-15T05:44:01.757Z,61.72
2023-11-15T05:46:29.951Z,62.51
2023-11-15T05:48:58.095Z,62.48
2023-11-15T05:51:27.684Z,62.76
2023-11-15T05:53:55.859Z,62.13
2023-11-15T05:56:24.560Z,62.82
2023-11-15T05:58:52.639Z,62.20
2023-11-15T06:01:21.883Z,63.04
2023-11-15T06:03:50.221Z,62.26
2023-11-15T06:06:18.606Z,62.33
2023-11-15T06:08:48.597Z,62.75
2023-11-15T06:11:17.594Z,63.37
2023-11-15T06:13:45.748Z,62.87
2023-11-15T06:16:13.899Z,62.75
2023-11-15T06:18:43.627Z,62.97
2023-11-15T06:21:12.830Z,62.64
2023-11-15T06:23:41.038Z,63.43
2023-11-15T06:26:13.122Z,63.01
2023-11-15T06:28:42.185Z,62.67
2023-11-15T06:31:10.384Z,62.16
2023-11-15T06:33:39.760Z,62.41
2023-11-15T06:36:09.602Z,62.44
2023-11-15T06:38:37.784Z,63.06
2023-11-15T06:41:08.706Z,62.95
2023-11-15T06:43:38.414Z,62.53
2023-11-15T06:46:06.668Z,63.11
2023-11-15T06:48:34.903Z,62.49
2023-11-15T06:51:03.985Z,62.39
2023-11-15T06:53:32.745Z,63.29
2023-11-15T06:56:00.926Z,62.68
2023-11-15T06:58:29.084Z,62.93
2023-11-15T07:00:58.654Z,62.58
2023-11-15T07:03:26.980Z,62.20
2023-11-15T07:05:55.238Z,61.87
2023-11-15T07:08:23.465Z,62.37
2023-11-15T07:10:51.698Z,62.31
2023-11-15T07:13:22.330Z,61.62
2023-11-15T07:15:51.773Z,61.95
2023-11-15T07:18:24.917Z,62.21
2023-11-15T07:20:53.775Z,62.22
2023-11-15T07:23:22.015Z,62.02
2023-11-15T07:25:50.315Z,61.80
2023-11-15T07:28:19.846Z,61.67
2023-11-15T07:30:48.096Z,60.66
2023-11-15T07:33:16.421Z,61.18
2023-11-15T07:35:47.718Z,59.66
2023-11-15T07:38:16.537Z,59.37
2023-11-15T07:40:45.112Z,59.41
2023-11-15T07:43:14.984Z,60.38
2023-11-15T07:45:43.459Z,59.41
2023-11-15T07:48:12.374Z,59.47
2023-11-15T07:50:42.166Z,59.77
2023-11-15T07:53:11.761Z,59.75
2023-11-15T07:55:39.878Z,60.18
2023-11-15T07:58:08.914Z,59.29
2023-11-15T08:00:38.239Z,60.16
2023-11-15T08:03:06.585Z,60.13
2023-11-15T08:05:34.927Z,59.86
2023-11-15T08:08:03.465Z,59.69
2023-11-15T08:10:33.873Z,59.37
2023-11-15T08:13:02.001Z,60.07
2023-11-15T08:15:30.212Z,59.37
2023-11-15T08:17:58.446Z,59.11
2023-11-15T08:20:26.721Z,59.59
2023-11-15T08:22:54.873Z,59.05
2023-11-15T08:25:23.184Z,59.45
2023-11-15T08:27:53.063Z,58.90
2023-11-15T08:30:22.595Z,59.24
2023-11-15T08:32:50.921Z,59.00
2023-11-15T08:35:19.223Z,59.49
2023-11-15T08:37:47.391Z,59.98
2023-11-15T08:40:26.134Z,60.42
2023-11-15T08:42:59.701Z,59.49
2023-11-15T08:45:28.142Z,59.20
2023-11-15T08:47:59.055Z,59.00
2023-11-15T08:50:28.634Z,58.02
2023-11-15T08:52:57.970Z,58.52
2023-11-15T08:55:26.153Z,59.05
2023-11-15T08:57:54.555Z,58.27
2023-11-15T09:00:25.767Z,57.69
2023-11-15T09:02:54.133Z,57.70
2023-11-15T09:05:24.492Z,57.60
2023-11-15T09:07:52.842Z,58.09
2023-11-15T09:10:24.171Z,57.94
2023-11-15T09:12:53.898Z,57.98
2023-11-15T09:15:25.753Z,58.74
2023-11-15T09:17:54.815Z,58.14
2023-11-15T09:20:27.888Z,58.15
2023-11-15T09:22:56.591Z,58.26
2023-11-15T09:25:25.563Z,58.17
2023-11-15T09:27:55.777Z,58.62
2023-11-15T09:30:26.682Z,58.23
2023-11-15T09:32:56.197Z,59.12
2023-11-15T09:35:29.436Z,58.94
2023-11-15T09:37:59.799Z,58.41
2023-11-15T09:40:28.971Z,58.20
2023-11-15T09:43:01.098Z,57.63
2023-11-15T09:45:33.713Z,57.99
2023-11-15T09:48:04.146Z,57.52
2023-11-15T09:50:35.081Z,57.75
2023-11-15T09:53:06.705Z,58.18
2023-11-15T09:55:36.210Z,58.73
2023-11-15T09:58:04.541Z,58.23
2023-11-15T10:00:34.199Z,58.55
2023-11-15T10:03:02.999Z,57.69
2023-11-15T10:05:33.469Z,56.27
2023-11-15T10:08:13.090Z,56.79
2023-11-15T10:10:43.272Z,56.97
2023-11-15T10:13:15.696Z,56.97
2023-11-15T10:15:46.709Z,56.75
2023-11-15T10:18:16.952Z,57.33
2023-11-15T10:20:45.484Z,56.60
2023-11-15T10:23:14.900Z,56.62
2023-11-15T10:25:52.431Z,56.73
2023-11-15T10:28:23.540Z,55.98
2023-11-15T10:31:04.578Z,56.83
2023-11-15T10:33:33.608Z,56.27
2023-11-15T10:36:26.489Z,55.17
2023-11-15T10:38:56.907Z,53.00
2023-11-15T10:41:27.159Z,44.17
2023-11-15T10:43:56.222Z,37.45
2023-11-15T10:46:30.612Z,31.84
2023-11-15T10:49:00.461Z,28.23
2023-11-15T10:51:42.281Z,24.75
2023-11-15T10:54:12.661Z,22.78
2023-11-15T10:56:42.523Z,20.33
2023-11-15T10:59:11.698Z,19.46
2023-11-15T11:01:43.648Z,17.81
2023-11-15T11:04:16.845Z,17.30
2023-11-15T11:06:51.929Z,16.13
2023-11-15T11:09:24.929Z,16.02
2023-11-15T11:11:59.165Z,15.72
2023-11-15T11:14:28.800Z,15.64
2023-11-15T11:17:00.393Z,15.34
2023-11-15T11:19:28.696Z,17.35
2023-11-15T11:22:09.098Z,19.54
2023-11-15T11:24:40.998Z,20.55
2023-11-15T11:27:31.812Z,19.79
2023-11-15T11:30:20.696Z,19.27
2023-11-15T11:32:52.143Z,21.19
2023-11-15T11:35:36.121Z,23.72
2023-11-15T11:38:05.808Z,27.06
2023-11-15T11:40:40.754Z,28.78
2023-11-15T11:43:23.194Z,30.35
2023-11-15T11:45:55.150Z,31.16
2023-11-15T11:48:27.167Z,32.02
2023-11-15T11:51:00.909Z,33.00
2023-11-15T11:53:29.627Z,33.73
2023-11-15T11:55:58.748Z,34.37
2023-11-15T11:58:29.999Z,34.69
2023-11-15T12:01:03.207Z,35.14
2023-11-15T12:03:33.582Z,35.54
2023-11-15T12:06:09.756Z,35.94
2023-11-15T12:08:39.970Z,36.15
2023-11-15T12:11:09.489Z,36.80
2023-11-15T12:13:49.682Z,36.38
2023-11-15T12:16:22.415Z,36.88
2023-11-15T12:19:10.009Z,37.22
2023-11-15T12:21:39.907Z,37.28
2023-11-15T12:24:11.502Z,37.53
2023-11-15T12:26:47.314Z,37.43
2023-11-15T12:29:21.161Z,37.32
2023-11-15T12:31:52.081Z,37.63
2023-11-15T12:34:23.175Z,37.90
2023-11-15T12:36:52.770Z,37.58
2023-11-15T12:39:23.387Z,37.98
2023-11-15T12:41:54.098Z,38.54
2023-11-15T12:44:22.799Z,38.51
2023-11-15T12:46:55.419Z,38.81
2023-11-15T12:49:29.072Z,38.36
2023-11-15T12:51:57.923Z,38.84
2023-11-15T12:54:26.157Z,38.78
2023-11-15T12:57:05.825Z,38.54
2023-11-15T12:59:39.320Z,38.15
2023-11-15T13:02:08.719Z,38.18
2023-11-15T13:04:48.404Z,38.14
2023-11-15T13:07:16.949Z,38.09
2023-11-15T13:09:45.594Z,37.68
2023-11-15T13:12:25.806Z,37.55
2023-11-15T13:14:55.507Z,38.41
2023-11-15T13:17:24.754Z,38.71
2023-11-15T13:19:56.589Z,38.35
2023-11-15T13:22:25.307Z,38.69
2023-11-15T13:24:53.590Z,38.61
2023-11-15T13:27:22.060Z,38.71
2023-11-15T13:29:52.106Z,38.77
2023-11-15T13:32:20.698Z,38.75
2023-11-15T13:34:52.108Z,38.91
2023-11-15T13:37:21.958Z,39.26
2023-11-15T13:39:50.294Z,39.02
2023-11-15T13:42:18.647Z,39.64
2023-11-15T13:44:48.726Z,39.64
2023-11-15T13:47:17.012Z,40.19
2023-11-15T13:49:48.818Z,40.42
2023-11-15T13:52:17.503Z,40.63
2023-11-15T13:54:48.329Z,40.56
2023-11-15T13:57:18.934Z,40.77
2023-11-15T13:59:47.335Z,41.27
2023-11-15T14:02:15.613Z,41.55
2023-11-15T14:04:43.976Z,42.00
2023-11-15T14:07:12.648Z,41.75
2023-11-15T14:09:41.402Z,41.65
2023-11-15T14:12:12.300Z,41.76
2023-11-15T14:14:41.385Z,42.15
2023-11-15T14:17:11.489Z,41.43
2023-11-15T14:19:41.210Z,41.68
2023-11-15T14:22:09.524Z,41.79
2023-11-15T14:24:37.927Z,42.20
2023-11-15T14:27:06.736Z,42.01
2023-11-15T14:29:36.977Z,42.67
2023-11-15T14:32:08.891Z,42.46
2023-11-15T14:34:37.168Z,42.59
2023-11-15T14:37:05.882Z,42.21
2023-11-15T14:39:34.214Z,42.39
2023-11-15T14:42:04.494Z,42.71
2023-11-15T14:44:35.398Z,43.01
2023-11-15T14:47:04.317Z,43.12
2023-11-15T14:49:33.247Z,43.43
2023-11-15T14:52:09.139Z,43.39
2023-11-15T14:54:41.899Z,43.25
2023-11-15T14:57:12.008Z,43.74
2023-11-15T14:59:47.903Z,43.59
2023-11-15T15:02:18.744Z,44.16
2023-11-15T15:04:49.320Z,43.97
2023-11-15T15:07:20.101Z,44.58
2023-11-15T15:09:48.420Z,44.36
2023-11-15T15:12:16.729Z,44.51
2023-11-15T15:14:46.551Z,44.97
2023-11-15T15:17:23.727Z,45.09
2023-11-15T15:19:54.870Z,45.17
2023-11-15T15:22:25.102Z,45.65
2023-11-15T15:24:53.283Z,45.73
2023-11-15T15:27:22.794Z,45.67
2023-11-15T15:29:52.463Z,46.00
2023-11-15T15:32:20.653Z,46.45
2023-11-15T15:34:48.762Z,46.39
2023-11-15T15:37:16.979Z,46.86
2023-11-15T15:39:45.119Z,46.98
2023-11-15T15:42:13.431Z,47.39
2023-11-15T15:44:41.943Z,46.97
2023-11-15T15:47:11.550Z,47.29
2023-11-15T15:49:46.251Z,47.73
2023-11-15T15:52:14.667Z,47.74
2023-11-15T15:54:43.859Z,47.26
2023-11-15T15:57:12.454Z,47.41
2023-11-15T15:59:41.777Z,48.03
2023-11-15T16:02:11.476Z,48.64
2023-11-15T16:04:42.629Z,48.05
2023-11-15T16:07:11.400Z,48.29
2023-11-15T16:09:42.693Z,48.16
2023-11-15T16:12:11.587Z,48.54
2023-11-15T16:14:40.197Z,49.00
2023-11-15T16:17:09.256Z,49.00
2023-11-15T16:19:39.303Z,49.57
2023-11-15T16:22:08.061Z,49.91
2023-11-15T16:24:36.630Z,49.76
2023-11-15T16:27:05.607Z,49.38
2023-11-15T16:29:34.548Z,50.22
2023-11-15T16:32:03.368Z,49.66
2023-11-15T16:34:31.889Z,49.95
2023-11-15T16:37:02.533Z,50.59
2023-11-15T16:39:30.981Z,50.37
2023-11-15T16:42:01.287Z,50.86
2023-11-15T16:44:34.637Z,50.51
2023-11-15T16:47:03.274Z,51.18
2023-11-15T16:49:31.678Z,50.67
2023-11-15T16:52:02.554Z,51.50
2023-11-15T16:54:32.827Z,50.98
2023-11-15T16:57:03.665Z,51.36
2023-11-15T16:59:32.223Z,51.57
2023-11-15T17:02:00.936Z,51.93
2023-11-15T17:04:29.995Z,51.93
2023-11-15T17:06:59.764Z,52.05
2023-11-15T17:09:30.303Z,51.47
2023-11-15T17:11:58.561Z,51.36
2023-11-15T17:14:27.133Z,52.46
2023-11-15T17:16:55.369Z,51.83
2023-11-15T17:19:23.605Z,52.28
2023-11-15T17:24:21.359Z,53.03
2023-11-15T17:26:51.039Z,52.39
2023-11-15T17:29:19.288Z,52.46
2023-11-15T17:31:47.540Z,52.76
2023-11-15T17:34:16.449Z,53.04
2023-11-15T17:36:46.066Z,53.57
2023-11-15T17:39:16.089Z,53.20
2023-11-15T17:41:44.971Z,54.00
2023-11-15T17:44:16.435Z,54.38
2023-11-15T17:46:44.728Z,54.07
2023-11-15T17:49:13.977Z,54.42
2023-11-15T17:51:45.334Z,54.50
2023-11-15T17:54:15.769Z,54.46
2023-11-15T17:56:44.200Z,54.10
2023-11-15T17:59:12.600Z,54.75
2023-11-15T18:01:43.285Z,54.75
2023-11-15T18:04:16.153Z,53.94
2023-11-15T18:06:45.098Z,54.43
2023-11-15T18:09:13.543Z,54.61
2023-11-15T18:11:42.085Z,54.20
2023-11-15T18:14:10.341Z,54.35
2023-11-15T18:16:38.587Z,55.30
2023-11-15T18:19:09.999Z,55.54
2023-11-15T18:21:38.790Z,54.98
2023-11-15T18:24:09.358Z,55.56
2023-11-15T18:26:38.299Z,55.63
2023-11-15T18:29:07.501Z,55.45
2023-11-15T18:31:35.775Z,55.66
2023-11-15T18:34:04.963Z,54.91
2023-11-15T18:36:35.350Z,55.30
2023-11-15T18:39:04.930Z,55.51
2023-11-15T18:41:33.327Z,55.96
2023-11-15T18:44:02.280Z,55.04
2023-11-15T18:46:30.873Z,55.87
2023-11-15T18:48:59.804Z,56.20
2023-11-15T18:51:31.727Z,55.66
2023-11-15T18:54:02.757Z,56.03
2023-11-15T18:56:32.088Z,56.12
2023-11-15T18:59:01.588Z,55.42
2023-11-15T19:01:30.103Z,55.83
2023-11-15T19:03:58.783Z,56.48
2023-11-15T19:06:29.129Z,56.18
2023-11-15T19:08:59.112Z,55.91
2023-11-15T19:11:32.199Z,55.92
2023-11-15T19:14:01.512Z,56.23
2023-11-15T19:16:30.206Z,56.46
2023-11-15T19:18:58.464Z,55.91
2023-11-15T19:21:26.746Z,55.82
2023-11-15T19:23:55.728Z,55.95
2023-11-15T19:26:25.922Z,55.15
2023-11-15T19:28:55.600Z,55.18
2023-11-15T19:31:25.148Z,54.79
2023-11-15T19:33:55.060Z,54.31
2023-11-15T19:36:23.370Z,54.30
2023-11-15T19:38:51.659Z,54.31
2023-11-15T19:41:20.615Z,54.34
2023-11-15T19:43:48.823Z,53.71
2023-11-15T19:46:21.432Z,54.41
2023-11-15T19:48:49.656Z,54.38
2023-11-15T19:51:36.895Z,54.29
2023-11-15T19:54:08.803Z,53.87
2023-11-15T19:56:37.380Z,54.11
2023-11-15T19:59:05.673Z,54.14
2023-11-15T20:01:35.305Z,54.24
2023-11-15T20:04:06.149Z,54.74
2023-11-15T20:06:34.495Z,55.24
2023-11-15T20:09:02.871Z,55.34
2023-11-15T20:11:31.176Z,55.27
2023-11-15T20:13:59.428Z,55.30
2023-11-15T20:16:28.755Z,54.86
2023-11-15T20:18:58.664Z,55.02
2023-11-15T20:21:26.886Z,54.31
2023-11-15T20:23:55.542Z,54.26
2023-11-15T20:26:23.841Z,54.93
2023-11-15T20:28:53.226Z,54.88
2023-11-15T20:31:22.518Z,55.03
2023-11-15T20:33:51.024Z,55.30
2023-11-15T20:36:21.340Z,55.42
2023-11-15T20:38:49.661Z,55.67
2023-11-15T20:41:17.919Z,55.90
2023-11-15T20:43:46.593Z,55.50
2023-11-15T20:46:17.985Z,55.55
2023-11-15T20:48:48.696Z,56.05
2023-11-15T20:51:17.212Z,55.63
2023-11-15T20:53:47.014Z,56.18
2023-11-15T20:56:15.168Z,56.10
2023-11-15T20:58:43.432Z,55.91
2023-11-15T21:01:11.632Z,56.45
2023-11-15T21:03:40.078Z,56.14
2023-11-15T21:06:10.354Z,56.54
2023-11-15T21:08:39.492Z,56.16
2023-11-15T21:11:09.906Z,55.94
2023-11-15T21:13:39.010Z,55.85
2023-11-15T21:16:08.493Z,55.53
2023-11-15T21:18:37.186Z,55.44
2023-11-15T21:21:06.165Z,55.35
2023-11-15T21:23:36.384Z,55.37
2023-11-15T21:26:07.173Z,55.46
2023-11-15T21:28:38.330Z,55.18
2023-11-15T21:31:07.683Z,55.67
2023-11-15T21:33:36.079Z,55.99
2023-11-15T21:36:05.196Z,56.33
2023-11-15T21:38:33.496Z,56.35
2023-11-15T21:41:02.794Z,56.32
2023-11-15T21:43:31.046Z,56.67
2023-11-15T21:46:00.651Z,56.87
2023-11-15T21:48:29.613Z,56.92
2023-11-15T21:50:57.960Z,57.09
2023-11-15T21:53:26.195Z,57.14
2023-11-15T21:55:54.458Z,57.62
2023-11-15T21:58:22.687Z,57.40
2023-11-15T22:00:50.972Z,57.58
2023-11-15T22:03:20.657Z,57.56
2023-11-15T22:05:49.084Z,57.80
2023-11-15T22:08:17.304Z,57.55
2023-11-15T22:10:45.506Z,57.78
2023-11-15T22:13:13.833Z,58.01
2023-11-15T22:15:42.178Z,57.95
2023-11-15T22:18:10.564Z,58.20
2023-11-15T22:20:40.235Z,58.14
2023-11-15T22:23:08.706Z,58.38
2023-11-15T22:25:36.912Z,58.14
2023-11-15T22:28:05.049Z,58.39
2023-11-15T22:30:33.383Z,58.78
2023-11-15T22:33:01.597Z,58.81
2023-11-15T22:35:30.793Z,58.88
2023-11-15T22:38:00.302Z,58.79
2023-11-15T22:40:28.356Z,58.65
2023-11-15T22:43:04.610Z,58.55
2023-11-15T22:45:33.344Z,58.18
2023-11-15T22:48:02.030Z,57.96
2023-11-15T22:50:30.286Z,58.29
2023-11-15T22:52:59.936Z,58.53
2023-11-15T22:55:28.178Z,58.56
2023-11-15T22:57:56.514Z,58.69
2023-11-15T23:00:34.313Z,58.89
2023-11-15T23:03:10.776Z,58.77
2023-11-15T23:05:41.383Z,58.57
2023-11-15T23:08:11.944Z,58.65
2023-11-15T23:10:40.993Z,58.49
2023-11-15T23:13:09.214Z,58.45
2023-11-15T23:15:37.997Z,58.36
2023-11-15T23:18:06.871Z,58.62
2023-11-15T23:20:36.996Z,58.73
2023-11-15T23:23:05.739Z,58.86
2023-11-15T23:25:35.419Z,58.91
2023-11-15T23:28:05.490Z,58.59
2023-11-15T23:30:36.449Z,58.56
2023-11-15T23:33:04.994Z,58.47
2023-11-15T23:35:34.193Z,58.45
2023-11-15T23:38:02.760Z,58.23
2023-11-15T23:40:31.472Z,58.18
2023-11-15T23:43:01.184Z,58.40
2023-11-15T23:45:31.698Z,58.44
2023-11-15T23:48:01.967Z,58.58
2023-11-15T23:50:30.333Z,58.76
2023-11-15T23:52:58.573Z,58.68
2023-11-15T23:55:26.831Z,58.46
2023-11-15T23:57:55.597Z,58.34
